Time;durP1;ratioP1;P1;durP2;ratioP2;P2;SDS_P1;SDS_P2;PMS_P1;PMS_P2;Temp;Humidity;BMP_temperature;BMP_pressure;BME280_temperature;BME280_humidity;BME280_pressure;Samples;Min_cycle;Max_cycle;Signal;HPM_P1;HPM_P2
2024/02/15 00:02:22;;;;;;;;;;;;;;;18.84;61.71;101455.03;7391561;19;1417;-34
2024/02/15 00:04:51;;;;;;;;;;;;;;;18.64;62.06;101452.97;7392067;19;1494;-34
2024/02/15 00:07:22;;;;;;;;;;;;;;;18.49;62.38;101460.34;7392789;19;1304;-34
2024/02/15 00:09:50;;;;;;;;;;;;;;;18.47;62.32;101451.56;7393518;19;1800;-34
2024/02/15 00:12:18;;;;;;;;;;;;;;;18.57;62.25;101457.94;7393037;19;1474;-34
2024/02/15 00:14:47;;;;;;;;;;;;;;;18.82;61.70;101454.31;7392890;19;1181;-35
2024/02/15 00:17:15;;;;;;;;;;;;;;;18.82;61.64;101456.09;7389708;19;1880;-35
2024/02/15 00:19:46;;;;;;;;;;;;;;;18.61;62.21;101446.03;7392694;19;1406;-36
2024/02/15 00:22:15;;;;;;;;;;;;;;;18.48;62.42;101463.97;7390720;19;1523;-35
2024/02/15 00:24:45;;;;;;;;;;;;;;;18.47;62.31;101468.50;7392275;19;1435;-35
2024/02/15 00:27:13;;;;;;;;;;;;;;;18.61;62.21;101455.91;7391576;19;1169;-36
2024/02/15 00:29:42;;;;;;;;;;;;;;;18.86;61.79;101457.56;7393256;19;1347;-35
2024/02/15 00:32:11;;;;;;;;;;;;;;;19.03;61.06;101454.44;7392877;19;1942;-36
2024/02/15 00:34:39;;;;;;;;;;;;;;;19.11;60.84;101444.97;7391345;19;1161;-36
2024/02/15 00:37:10;;;;;;;;;;;;;;;19.16;60.86;101469.56;7390217;19;1849;-39
2024/02/15 00:39:39;;;;;;;;;;;;;;;19.16;60.79;101456.16;7392010;19;1443;-35
2024/02/15 00:42:08;;;;;;;;;;;;;;;19.27;60.62;101458.88;7391727;19;1150;-36
2024/02/15 00:44:37;;;;;;;;;;;;;;;19.17;60.78;101460.56;7391143;19;1479;-35
2024/02/15 00:47:05;;;;;;;;;;;;;;;18.81;61.47;101455.25;7391162;19;1438;-36
2024/02/15 00:49:34;;;;;;;;;;;;;;;18.62;61.98;101445.06;7389005;19;1505;-34
2024/02/15 00:52:03;;;;;;;;;;;;;;;18.48;62.29;101453.28;7391475;19;1740;-34
2024/02/15 00:54:34;;;;;;;;;;;;;;;18.53;62.34;101461.81;7391703;19;1493;-36
2024/02/15 00:57:02;;;;;;;;;;;;;;;18.68;61.94;101449.09;7388678;19;2478;-36
2024/02/15 00:59:30;;;;;;;;;;;;;;;18.82;61.57;101451.63;7374701;19;1848;-35
2024/02/15 01:01:59;;;;;;;;;;;;;;;18.69;62.18;101459.69;7391289;19;1460;-36
2024/02/15 01:04:27;;;;;;;;;;;;;;;18.56;62.07;101466.09;7386631;19;1601;-35
2024/02/15 01:06:56;;;;;;;;;;;;;;;18.40;62.61;101450.31;7390032;19;1209;-34
2024/02/15 01:09:24;;;;;;;;;;;;;;;18.48;62.34;101453.28;7390915;19;1705;-35
2024/02/15 01:11:55;;;;;;;;;;;;;;;18.68;62.08;101458.00;7391838;19;1150;-34
2024/02/15 01:14:24;;;;;;;;;;;;;;;18.73;61.92;101456.78;7389720;19;1830;-34
2024/02/15 01:16:52;;;;;;;;;;;;;;;18.62;62.27;101450.44;7390452;19;1519;-34
2024/02/15 01:19:20;;;;;;;;;;;;;;;18.47;62.41;101451.56;7388822;19;1848;-35
2024/02/15 01:21:49;;;;;;;;;;;;;;;18.45;62.60;101449.00;7391098;19;986;-35
2024/02/15 01:24:17;;;;;;;;;;;;;;;18.64;62.07;101453.84;7391009;19;1834;-35
2024/02/15 01:26:47;;;;;;;;;;;;;;;18.86;61.70;101436.13;7389443;19;1923;-41
2024/02/15 01:29:18;;;;;;;;;;;;;;;18.66;61.99;101454.59;7390455;19;1433;-40
2024/02/15 01:31:47;;;;;;;;;;;;;;;18.53;62.36;101456.47;7390268;19;1738;-39
2024/02/15 01:34:15;;;;;;;;;;;;;;;18.41;62.57;101474.31;7389838;19;1817;-38
2024/02/15 01:36:44;;;;;;;;;;;;;;;18.49;62.30;101466.56;7388761;19;1459;-41
2024/02/15 01:39:12;;;;;;;;;;;;;;;18.68;62.19;101465.16;7387389;19;1855;-41
2024/02/15 01:41:41;;;;;;;;;;;;;;;18.92;61.48;101461.59;7389611;19;1260;-39
2024/02/15 01:44:10;;;;;;;;;;;;;;;19.00;61.19;101467.22;7389970;19;1420;-40
2024/02/15 01:46:43;;;;;;;;;;;;;;;19.11;61.13;101469.94;7388899;19;1444;-41
2024/02/15 01:49:11;;;;;;;;;;;;;;;19.15;61.01;101470.56;7387582;19;1577;-40
2024/02/15 01:51:40;;;;;;;;;;;;;;;19.21;60.74;101470.09;7385343;19;1732;-39
2024/02/15 01:54:09;;;;;;;;;;;;;;;19.21;60.56;101470.94;7388618;19;1418;-40
2024/02/15 01:56:37;;;;;;;;;;;;;;;19.21;60.69;101473.63;7387282;19;1829;-40
2024/02/15 01:59:07;;;;;;;;;;;;;;;19.21;60.71;101475.44;7374897;19;1866;-40
2024/02/15 02:01:36;;;;;;;;;;;;;;;19.26;60.57;101481.31;7389644;19;1504;-35
2024/02/15 02:04:07;;;;;;;;;;;;;;;19.33;60.30;101473.63;7390484;19;1177;-35
2024/02/15 02:06:36;;;;;;;;;;;;;;;19.33;60.52;101473.63;7387166;19;1386;-36
2024/02/15 02:09:04;;;;;;;;;;;;;;;19.32;60.37;101470.13;7389422;19;1107;-35
2024/02/15 02:11:33;;;;;;;;;;;;;;;19.34;60.43;101481.56;7389666;19;1106;-36
2024/02/15 02:14:01;;;;;;;;;;;;;;;19.14;60.80;101483.13;7387841;19;1597;-35
2024/02/15 02:16:31;;;;;;;;;;;;;;;18.91;61.39;101474.16;7388235;19;1431;-36
2024/02/15 02:19:00;;;;;;;;;;;;;;;18.71;61.81;101472.13;7388349;19;1877;-40
2024/02/15 02:21:31;;;;;;;;;;;;;;;18.56;62.18;101476.81;7387175;19;1820;-35
2024/02/15 02:24:00;;;;;;;;;;;;;;;18.59;62.04;101482.78;7388582;19;1566;-35
2024/02/15 02:26:32;;;;;;;;;;;;;;;18.74;61.76;101482.59;7387664;19;1562;-34
2024/02/15 02:29:04;;;;;;;;;;;;;;;19.00;61.29;101486.88;7386973;19;1276;-34
2024/02/15 02:31:35;;;;;;;;;;;;;;;19.13;61.13;101484.09;7387865;19;1379;-36
2024/02/15 02:34:03;;;;;;;;;;;;;;;19.15;60.92;101483.97;7387904;19;1375;-36
2024/02/15 02:36:32;;;;;;;;;;;;;;;19.18;60.69;101489.09;7386677;19;1622;-36
2024/02/15 02:39:00;;;;;;;;;;;;;;;19.22;60.46;101488.75;7386784;19;1882;-35
2024/02/15 02:41:32;;;;;;;;;;;;;;;19.32;60.46;101488.88;7387376;19;1196;-35
2024/02/15 02:44:00;;;;;;;;;;;;;;;19.32;60.22;101483.53;7388468;19;1569;-35
2024/02/15 02:46:29;;;;;;;;;;;;;;;19.33;60.24;101485.22;7387044;19;1385;-35
2024/02/15 02:48:57;;;;;;;;;;;;;;;19.01;61.05;101475.16;7386601;19;1454;-35
2024/02/15 02:51:25;;;;;;;;;;;;;;;18.83;61.74;101489.97;7385058;19;1762;-36
2024/02/15 02:53:53;;;;;;;;;;;;;;;18.66;61.96;101491.22;7386652;19;1446;-35
2024/02/15 02:56:22;;;;;;;;;;;;;;;18.52;62.19;101492.25;7387725;19;1531;-35
2024/02/15 02:58:53;;;;;;;;;;;;;;;18.67;61.90;101492.94;7371746;19;1855;-36
2024/02/15 03:01:21;;;;;;;;;;;;;;;18.88;61.62;101474.41;7387713;19;1376;-35
2024/02/15 03:03:49;;;;;;;;;;;;;;;19.12;60.90;101481.50;7388081;19;1472;-35
2024/02/15 03:06:18;;;;;;;;;;;;;;;19.18;60.79;101481.91;7386211;19;2348;-35
2024/02/15 03:08:47;;;;;;;;;;;;;;;19.25;60.71;101490.31;7386975;19;1763;-34
2024/02/15 03:11:15;;;;;;;;;;;;;;;19.26;60.51;101470.59;7387347;19;1502;-34
2024/02/15 03:13:44;;;;;;;;;;;;;;;19.30;60.33;101473.88;7384549;19;1459;-34
2024/02/15 03:16:16;;;;;;;;;;;;;;;19.29;60.45;101475.69;7386271;19;1189;-35
2024/02/15 03:18:44;;;;;;;;;;;;;;;19.29;60.49;101481.06;7386868;19;1843;-34
2024/02/15 03:21:13;;;;;;;;;;;;;;;19.27;60.50;101473.13;7386848;19;1934;-35
2024/02/15 03:23:41;;;;;;;;;;;;;;;19.32;60.27;101478.16;7386532;19;1863;-35
2024/02/15 03:26:11;;;;;;;;;;;;;;;19.39;60.32;101479.34;7390379;19;1434;-34
2024/02/15 03:28:40;;;;;;;;;;;;;;;19.40;60.11;101473.03;7393777;19;1367;-39
2024/02/15 03:31:09;;;;;;;;;;;;;;;19.39;60.23;101465.94;7392991;19;1788;-39
2024/02/15 03:33:40;;;;;;;;;;;;;;;19.42;60.06;101480.97;7393188;19;1741;-36
2024/02/15 03:36:10;;;;;;;;;;;;;;;19.41;59.92;101490.81;7394274;19;1509;-35
2024/02/15 03:38:38;;;;;;;;;;;;;;;19.22;60.12;101458.41;7393549;19;1866;-34
2024/02/15 03:41:06;;;;;;;;;;;;;;;19.43;60.15;101475.47;7391535;19;1497;-36
2024/02/15 03:43:35;;;;;;;;;;;;;;;19.41;60.06;101477.41;7393420;19;1387;-36
2024/02/15 03:46:03;;;;;;;;;;;;;;;19.46;59.95;101498.53;7394029;19;1480;-34
2024/02/15 03:48:32;;;;;;;;;;;;;;;19.43;60.09;101488.03;7393844;19;1512;-36
2024/02/15 03:51:03;;;;;;;;;;;;;;;19.39;59.98;101484.72;7390107;19;1547;-36
2024/02/15 03:53:33;;;;;;;;;;;;;;;19.43;60.00;101488.88;7393449;19;1420;-36
2024/02/15 03:56:01;;;;;;;;;;;;;;;19.45;60.01;101518.25;7394677;19;1446;-36
2024/02/15 03:58:32;;;;;;;;;;;;;;;19.42;60.23;101495.22;7393194;19;1892;-34
2024/02/15 04:01:02;;;;;;;;;;;;;;;19.42;60.05;101500.59;7376464;19;1512;-35
2024/02/15 04:03:32;;;;;;;;;;;;;;;19.43;60.12;101502.28;7394743;19;1180;-36
2024/02/15 04:06:04;;;;;;;;;;;;;;;19.43;59.98;101499.59;7393806;19;1836;-36
2024/02/15 04:08:33;;;;;;;;;;;;;;;19.41;60.32;101503.38;7392124;19;1568;-35
2024/02/15 04:11:01;;;;;;;;;;;;;;;19.37;60.20;101494.72;7393923;19;1505;-36
2024/02/15 04:13:30;;;;;;;;;;;;;;;19.43;60.04;101501.44;7391984;19;1524;-35
2024/02/15 04:15:58;;;;;;;;;;;;;;;19.43;60.22;101498.75;7392943;19;1217;-40
2024/02/15 04:18:26;;;;;;;;;;;;;;;19.46;60.00;101509.25;7391708;19;1941;-39
2024/02/15 04:20:55;;;;;;;;;;;;;;;19.43;59.96;101502.28;7392271;19;1343;-39
2024/02/15 04:23:26;;;;;;;;;;;;;;;19.43;59.98;101502.28;7391400;19;1522;-34
2024/02/15 04:25:54;;;;;;;;;;;;;;;19.42;60.16;101508.63;7391226;19;1364;-35
2024/02/15 04:28:22;;;;;;;;;;;;;;;19.39;60.02;101513.38;7389634;19;1388;-34
2024/02/15 04:30:50;;;;;;;;;;;;;;;19.41;60.25;101509.59;7391947;19;1500;-40
2024/02/15 04:33:19;;;;;;;;;;;;;;;19.44;59.96;101517.41;7390069;19;1673;-39
2024/02/15 04:35:48;;;;;;;;;;;;;;;19.37;60.20;101510.81;7391073;19;1440;-39
2024/02/15 04:38:19;;;;;;;;;;;;;;;19.38;60.13;101509.84;7390468;19;1408;-36
2024/02/15 04:40:50;;;;;;;;;;;;;;;19.42;60.19;101514.00;7393597;19;1442;-36
2024/02/15 04:43:18;;;;;;;;;;;;;;;19.39;59.87;101508.88;7390490;19;1228;-35
2024/02/15 04:45:46;;;;;;;;;;;;;;;19.37;60.08;101508.13;7388591;19;1472;-34
2024/02/15 04:48:17;;;;;;;;;;;;;;;19.43;60.07;101518.38;7389349;19;1406;-40
2024/02/15 04:50:45;;;;;;;;;;;;;;;19.47;60.03;101511.78;7389314;19;1223;-40
2024/02/15 04:53:14;;;;;;;;;;;;;;;19.43;60.00;101513.00;7390559;19;1193;-39
2024/02/15 04:55:42;;;;;;;;;;;;;;;19.41;60.01;101525.69;7390004;19;1562;-35
2024/02/15 04:58:13;;;;;;;;;;;;;;;19.41;60.23;101506.91;7389821;19;1465;-34
2024/02/15 05:00:42;;;;;;;;;;;;;;;19.42;60.16;101524.72;7373508;19;1857;-35
2024/02/15 05:03:10;;;;;;;;;;;;;;;19.41;59.97;101541.78;7390607;19;1320;-34
2024/02/15 05:05:38;;;;;;;;;;;;;;;19.41;60.17;101531.06;7391063;19;1340;-35
2024/02/15 05:08:09;;;;;;;;;;;;;;;19.43;60.18;101539.84;7391487;19;1221;-35
2024/02/15 05:10:37;;;;;;;;;;;;;;;19.48;60.18;101550.22;7391734;19;1142;-35
2024/02/15 05:13:05;;;;;;;;;;;;;;;19.42;60.19;101535.47;7389393;19;1439;-35
2024/02/15 05:15:36;;;;;;;;;;;;;;;19.34;60.55;101559.34;7384754;19;1299;-36
2024/02/15 05:18:08;;;;;;;;;;;;;;;19.23;59.78;101548.59;7387125;19;1534;-35
2024/02/15 05:20:37;;;;;;;;;;;;;;;19.26;59.82;101545.69;7386609;19;1851;-35
2024/02/15 05:23:05;;;;;;;;;;;;;;;19.20;60.01;101547.00;7386768;19;1506;-35
2024/02/15 05:25:35;;;;;;;;;;;;;;;19.27;59.91;101558.94;7386239;19;1498;-35
2024/02/15 05:28:05;;;;;;;;;;;;;;;19.25;59.66;101554.69;7385081;19;1717;-35
2024/02/15 05:30:34;;;;;;;;;;;;;;;19.31;59.85;101575.66;7387515;19;1367;-35
2024/02/15 05:33:10;;;;;;;;;;;;;;;19.30;59.81;101565.03;7388140;19;1917;-35
2024/02/15 05:35:41;;;;;;;;;;;;;;;19.28;59.82;101573.22;7390188;19;1610;-35
2024/02/15 05:38:11;;;;;;;;;;;;;;;19.26;59.79;101567.97;7388631;19;1657;-35
2024/02/15 05:40:39;;;;;;;;;;;;;;;19.28;59.79;101592.84;7387915;19;1848;-35
2024/02/15 05:43:08;;;;;;;;;;;;;;;19.25;59.61;101576.97;7384013;19;1827;-34
2024/02/15 05:45:39;;;;;;;;;;;;;;;19.26;59.64;101567.13;7385862;19;1252;-35
2024/02/15 05:48:12;;;;;;;;;;;;;;;19.24;59.50;101561.03;7383654;19;1577;-35
2024/02/15 05:50:40;;;;;;;;;;;;;;;19.24;59.73;101579.81;7383891;19;1430;-34
2024/02/15 05:53:09;;;;;;;;;;;;;;;19.25;59.48;101584.19;7385614;19;1653;-40
2024/02/15 05:55:40;;;;;;;;;;;;;;;19.25;59.50;101592.22;7387978;19;1112;-35
2024/02/15 05:58:10;;;;;;;;;;;;;;;19.27;59.46;101591.13;7389840;19;1160;-35
2024/02/15 06:00:38;;;;;;;;;;;;;;;19.27;59.53;101593.81;7372898;19;1882;-35
2024/02/15 06:03:09;;;;;;;;;;;;;;;19.31;59.37;101601.63;7388691;19;1931;-38
2024/02/15 06:05:41;;;;;;;;;;;;;;;19.31;59.38;101601.63;7388881;19;1573;-37
2024/02/15 06:08:09;;;;;;;;;;;;;;;19.30;59.22;101600.78;7388613;19;1472;-33
2024/02/15 06:10:37;;;;;;;;;;;;;;;19.34;59.22;101599.56;7390365;19;1724;-39
2024/02/15 06:13:08;;;;;;;;;;;;;;;19.37;59.22;101607.38;7388295;19;1547;-36
2024/02/15 06:15:36;;;;;;;;;;;;;;;19.38;59.10;101603.72;7390430;19;1339;-37
2024/02/15 06:18:09;;;;;;;;;;;;;;;19.36;59.04;101600.31;7387513;19;1422;-36
2024/02/15 06:20:40;;;;;;;;;;;;;;;19.42;59.24;101604.34;7388685;19;1865;-36
2024/02/15 06:23:09;;;;;;;;;;;;;;;19.35;59.13;101597.75;7388276;19;1859;-37
2024/02/15 06:25:38;;;;;;;;;;;;;;;19.34;59.14;101612.97;7388318;19;1843;-37
2024/02/15 06:28:13;;;;;;;;;;;;;;;19.36;59.11;101605.69;7387804;19;1717;-41
2024/02/15 06:41:30;;;;;;;;;;;;;;;19.41;59.09;101624.09;7389354;19;1451;-36
2024/02/15 06:43:59;;;;;;;;;;;;;;;19.44;58.85;101616.66;7387818;19;1308;-36
2024/02/15 06:46:27;;;;;;;;;;;;;;;19.51;59.02;101641.19;7386917;19;1737;-36
2024/02/15 06:48:57;;;;;;;;;;;;;;;19.51;58.86;101626.91;7388352;19;1522;-36
2024/02/15 06:51:28;;;;;;;;;;;;;;;19.56;58.92;101611.34;7385921;19;1669;-41
2024/02/15 06:53:57;;;;;;;;;;;;;;;19.56;58.76;101614.03;7385770;19;1607;-41
2024/02/15 06:56:26;;;;;;;;;;;;;;;19.61;58.92;101611.81;7372555;19;1479;-37
2024/02/15 06:58:54;;;;;;;;;;;;;;;19.70;58.42;101624.53;7381347;19;1435;-37
2024/02/15 07:01:23;;;;;;;;;;;;;;;19.72;58.38;101611.88;7367737;19;1840;-37
2024/02/15 07:03:52;;;;;;;;;;;;;;;19.70;58.75;101624.53;7383566;19;1686;-41
2024/02/15 07:06:21;;;;;;;;;;;;;;;19.43;59.11;101617.63;7378677;19;1489;-37
2024/02/15 07:08:53;;;;;;;;;;;;;;;19.26;59.61;101618.94;7382800;19;1287;-36
2024/02/15 07:11:22;;;;;;;;;;;;;;;19.10;59.71;101614.81;7380099;19;1789;-41
2024/02/15 07:13:53;;;;;;;;;;;;;;;18.97;60.28;101604.19;7379025;19;1538;-36
2024/02/15 07:16:21;;;;;;;;;;;;;;;18.84;60.73;101605.09;7383497;19;1215;-37
2024/02/15 07:18:49;;;;;;;;;;;;;;;18.76;60.87;101617.31;7381433;19;1275;-35
2024/02/15 07:21:21;;;;;;;;;;;;;;;18.79;60.99;101614.41;7381358;19;1896;-37
2024/02/15 07:23:52;;;;;;;;;;;;;;;18.68;61.11;101613.38;7381864;19;1490;-36
2024/02/15 07:26:20;;;;;;;;;;;;;;;18.58;61.27;101625.75;7383706;19;1606;-35
2024/02/15 07:28:50;;;;;;;;;;;;;;;18.59;61.41;101597.97;7382454;19;1410;-37
2024/02/15 07:31:18;;;;;;;;;;;;;;;18.59;61.28;101606.00;7382763;19;1327;-35
2024/02/15 07:33:46;;;;;;;;;;;;;;;18.61;61.31;101609.44;7382689;19;1820;-38
2024/02/15 07:36:15;;;;;;;;;;;;;;;18.57;61.50;101602.59;7381200;19;1313;-38
2024/02/15 07:38:45;;;;;;;;;;;;;;;18.60;61.47;101607.75;7382516;19;1391;-36
2024/02/15 07:41:17;;;;;;;;;;;;;;;18.61;61.32;101608.59;7381560;19;1861;-37
2024/02/15 07:43:46;;;;;;;;;;;;;;;18.51;61.72;101613.75;7381194;19;1485;-37
2024/02/15 07:46:16;;;;;;;;;;;;;;;18.50;61.85;101606.66;7380513;19;1450;-36
2024/02/15 07:48:45;;;;;;;;;;;;;;;18.50;61.71;101601.31;7381375;19;2531;-37
2024/02/15 07:51:15;;;;;;;;;;;;;;;18.47;61.68;101596.19;7379788;19;1828;-37
2024/02/15 07:53:43;;;;;;;;;;;;;;;18.52;61.64;101603.88;7381960;19;1658;-36
2024/02/15 07:56:13;;;;;;;;;;;;;;;18.46;61.96;101600.72;7382075;19;1717;-37
2024/02/15 07:58:46;;;;;;;;;;;;;;;18.46;61.68;101589.13;7380655;19;1410;-37
2024/02/15 08:01:16;;;;;;;;;;;;;;;18.52;61.75;101604.75;7364509;19;1835;-36
2024/02/15 08:03:45;;;;;;;;;;;;;;;18.57;61.52;101604.41;7382557;19;1707;-37
2024/02/15 08:06:14;;;;;;;;;;;;;;;18.52;61.58;101590.50;7380625;19;1337;-36
2024/02/15 08:08:45;;;;;;;;;;;;;;;18.51;61.62;101597.69;7379416;19;1258;-37
2024/02/15 08:11:15;;;;;;;;;;;;;;;18.54;61.41;101602.81;7384345;19;953;-37
2024/02/15 08:13:49;;;;;;;;;;;;;;;18.46;61.63;101597.16;7388770;19;1661;-37
2024/02/15 08:16:18;;;;;;;;;;;;;;;18.46;61.96;101599.84;7387871;19;1308;-37
2024/02/15 08:18:46;;;;;;;;;;;;;;;18.51;61.64;101592.34;7388035;19;1843;-42
2024/02/15 08:21:15;;;;;;;;;;;;;;;18.47;61.51;101601.56;7381550;19;1862;-41
2024/02/15 08:23:43;;;;;;;;;;;;;;;18.51;61.75;101592.34;7389052;19;1487;-41
2024/02/15 08:26:12;;;;;;;;;;;;;;;18.45;61.66;101598.13;7390507;19;1415;-41
2024/02/15 08:28:40;;;;;;;;;;;;;;;18.42;61.66;101588.50;7387036;19;1572;-41
2024/02/15 08:31:14;;;;;;;;;;;;;;;18.40;61.86;101589.56;7388824;19;2571;-40
2024/02/15 08:33:44;;;;;;;;;;;;;;;18.40;61.74;101586.88;7389801;19;1779;-41
2024/02/15 08:36:13;;;;;;;;;;;;;;;18.37;61.30;101587.13;7388694;19;1513;-41
2024/02/15 08:38:42;;;;;;;;;;;;;;;18.32;60.61;101589.28;7389859;19;1411;-41
2024/02/15 08:41:11;;;;;;;;;;;;;;;18.35;60.38;101597.09;7387651;19;1868;-37
2024/02/15 08:43:41;;;;;;;;;;;;;;;18.35;60.72;101581.03;7388466;19;1439;-37
2024/02/15 08:46:12;;;;;;;;;;;;;;;18.37;60.62;101576.41;7390088;19;1524;-38
2024/02/15 08:48:41;;;;;;;;;;;;;;;18.33;59.11;101588.31;7390772;19;1308;-37
2024/02/15 08:51:09;;;;;;;;;;;;;;;18.35;59.59;101586.38;7381213;19;1839;-37
2024/02/15 08:53:38;;;;;;;;;;;;;;;18.35;59.56;101597.09;7388999;19;1828;-36
2024/02/15 08:56:08;;;;;;;;;;;;;;;18.32;58.67;101589.28;7389720;19;1498;-35
2024/02/15 08:58:38;;;;;;;;;;;;;;;18.34;58.67;101627.50;7388165;19;1736;-41
2024/02/15 09:01:07;;;;;;;;;;;;;;;18.36;58.24;101596.13;7371774;19;1855;-41
2024/02/15 09:03:38;;;;;;;;;;;;;;;18.29;57.69;101572.47;7388669;19;1399;-41
2024/02/15 09:06:07;;;;;;;;;;;;;;;18.30;57.64;101578.66;7386165;19;1319;-37
2024/02/15 09:08:35;;;;;;;;;;;;;;;18.32;57.43;101582.09;7386970;19;1498;-37
2024/02/15 09:11:04;;;;;;;;;;;;;;;18.40;57.22;101574.38;7384381;19;1201;-36
2024/02/15 09:13:33;;;;;;;;;;;;;;;18.41;56.69;101569.88;7387894;19;1452;-37
2024/02/15 09:16:03;;;;;;;;;;;;;;;18.32;56.81;101571.38;7390573;19;1033;-38
2024/02/15 09:18:33;;;;;;;;;;;;;;;18.20;56.12;101583.81;7390169;19;1819;-38
2024/02/15 09:21:04;;;;;;;;;;;;;;;18.16;55.93;101584.16;7388913;19;1854;-45
2024/02/15 09:23:33;;;;;;;;;;;;;;;18.15;56.29;101561.06;7384661;19;1493;-42
2024/02/15 09:26:01;;;;;;;;;;;;;;;18.70;54.46;101559.66;7386299;19;1518;-37
2024/02/15 09:28:30;;;;;;;;;;;;;;;19.22;53.76;101566.50;7390652;19;1485;-36
2024/02/15 09:30:59;;;;;;;;;;;;;;;19.11;53.58;101562.94;7389419;19;1630;-37
2024/02/15 09:33:28;;;;;;;;;;;;;;;18.86;53.85;101551.38;7389246;19;1264;-37
2024/02/15 09:35:57;;;;;;;;;;;;;;;18.65;54.75;101567.22;7391111;19;1463;-36
2024/02/15 09:38:28;;;;;;;;;;;;;;;18.97;54.11;101556.78;7389477;19;1811;-37
2024/02/15 09:40:57;;;;;;;;;;;;;;;19.36;53.55;101564.56;7390555;19;1877;-37
2024/02/15 09:43:29;;;;;;;;;;;;;;;19.34;53.80;101531.66;7389989;19;1625;-35
2024/02/15 09:45:58;;;;;;;;;;;;;;;19.12;54.19;101569.97;7389621;19;1760;-34
2024/02/15 09:48:27;;;;;;;;;;;;;;;18.88;55.29;101549.47;7388710;19;1427;-35
2024/02/15 09:50:57;;;;;;;;;;;;;;;18.75;56.09;101541.44;7386217;19;2598;-37
2024/02/15 09:53:28;;;;;;;;;;;;;;;19.12;55.35;101538.69;7389430;19;1535;-37
2024/02/15 09:56:04;;;;;;;;;;;;;;;19.44;54.99;101549.59;7388909;19;1291;-35
2024/02/15 09:58:33;;;;;;;;;;;;;;;19.40;55.07;101555.34;7388571;19;1431;-37
2024/02/15 10:01:03;;;;;;;;;;;;;;;19.13;55.90;101550.25;7374694;19;1860;-39
2024/02/15 10:03:32;;;;;;;;;;;;;;;18.90;56.50;101523.41;7390276;19;1117;-37
2024/02/15 10:06:01;;;;;;;;;;;;;;;18.87;57.00;101548.56;7389228;19;1514;-41
2024/02/15 10:08:32;;;;;;;;;;;;;;;19.32;56.08;101545.19;7388271;19;1407;-37
2024/02/15 10:11:10;;;;;;;;;;;;;;;19.60;55.33;101543.91;7389125;19;1839;-41
2024/02/15 10:13:39;;;;;;;;;;;;;;;19.34;56.09;101545.94;7387746;19;1518;-37
2024/02/15 10:16:18;;;;;;;;;;;;;;;19.16;56.56;101545.53;7385129;19;1016;-37
2024/02/15 10:18:46;;;;;;;;;;;;;;;18.90;57.45;101550.19;7386605;19;1529;-41
2024/02/15 10:21:26;;;;;;;;;;;;;;;18.80;57.49;101531.28;7385576;19;1848;-37
2024/02/15 10:24:08;;;;;;;;;;;;;;;19.26;56.70;101534.94;7384194;19;1514;-37
2024/02/15 10:26:37;;;;;;;;;;;;;;;19.60;55.77;101532.31;7384803;19;2406;-37
2024/02/15 10:29:10;;;;;;;;;;;;;;;19.35;56.25;101536.91;7386969;19;1103;-36
2024/02/15 10:31:43;;;;;;;;;;;;;;;19.12;57.10;101532.44;7385554;19;1705;-35
2024/02/15 10:34:11;;;;;;;;;;;;;;;18.95;57.52;101525.72;7388296;19;1501;-35
2024/02/15 10:36:39;;;;;;;;;;;;;;;18.83;57.98;101519.47;7387598;19;1363;-35
2024/02/15 10:39:19;;;;;;;;;;;;;;;19.14;57.37;101526.03;7386949;19;1489;-36
2024/02/15 10:41:48;;;;;;;;;;;;;;;19.41;56.68;101517.66;7387505;19;1859;-35
2024/02/15 10:44:18;;;;;;;;;;;;;;;19.31;57.02;101515.81;7385882;19;1371;-36
2024/02/15 10:46:51;;;;;;;;;;;;;;;19.07;57.53;101525.63;7386573;19;1410;-37
2024/02/15 10:49:20;;;;;;;;;;;;;;;18.88;58.04;101514.63;7386579;19;1586;-36
2024/02/15 10:51:52;;;;;;;;;;;;;;;18.82;58.04;101515.94;7381537;19;2412;-36
2024/02/15 10:54:28;;;;;;;;;;;;;;;19.16;57.29;101513.34;7385518;19;1554;-35
2024/02/15 10:57:03;;;;;;;;;;;;;;;19.53;56.25;101521.19;7387187;19;1316;-35
2024/02/15 10:59:34;;;;;;;;;;;;;;;19.28;56.79;101509.72;7387750;19;1805;-37
2024/02/15 11:02:04;;;;;;;;;;;;;;;18.99;57.45;101489.66;7371448;19;1877;-35
2024/02/15 11:04:34;;;;;;;;;;;;;;;18.81;57.83;101508.84;7385401;19;1547;-35
2024/02/15 11:07:06;;;;;;;;;;;;;;;19.06;57.52;101496.28;7388817;19;984;-37
2024/02/15 11:09:37;;;;;;;;;;;;;;;19.50;56.70;101501.81;7385138;19;1926;-35
2024/02/15 11:12:06;;;;;;;;;;;;;;;19.58;56.59;101485.97;7386334;19;1910;-35
2024/02/15 11:14:34;;;;;;;;;;;;;;;19.31;57.27;101503.25;7388747;19;1753;-36
2024/02/15 11:17:06;;;;;;;;;;;;;;;19.06;57.81;101491.75;7388054;19;1840;-36
2024/02/15 11:19:41;;;;;;;;;;;;;;;18.94;58.16;101495.38;7386320;19;1547;-36
2024/02/15 11:22:10;;;;;;;;;;;;;;;19.23;57.73;101493.13;7385681;19;1849;-36
2024/02/15 11:24:48;;;;;;;;;;;;;;;19.63;56.63;101489.97;7387095;19;1571;-35
2024/02/15 11:27:26;;;;;;;;;;;;;;;19.48;57.12;101488.53;7386579;19;1297;-41
2024/02/15 11:29:56;;;;;;;;;;;;;;;19.23;57.76;101487.75;7386599;19;1291;-41
2024/02/15 11:32:40;;;;;;;;;;;;;;;19.04;58.16;101474.09;7386954;19;1031;-41
2024/02/15 11:35:11;;;;;;;;;;;;;;;19.01;58.20;101475.16;7385630;19;1548;-41
2024/02/15 11:38:14;;;;;;;;;;;;;;;19.43;57.34;101478.16;7388003;19;975;-36
2024/02/15 11:41:00;;;;;;;;;;;;;;;19.48;57.18;101465.22;7385332;19;1844;-37
2024/02/15 11:43:45;;;;;;;;;;;;;;;19.23;57.94;101476.19;7383122;19;1522;-40
2024/02/15 11:46:18;;;;;;;;;;;;;;;18.98;58.41;101459.34;7387141;19;1618;-41
2024/02/15 11:48:46;;;;;;;;;;;;;;;18.98;58.33;101471.84;7393142;19;1384;-41
2024/02/15 11:51:27;;;;;;;;;;;;;;;19.28;57.75;101457.91;7390977;19;1630;-41
2024/02/15 11:54:06;;;;;;;;;;;;;;;19.62;56.94;101474.88;7391763;19;1481;-41
2024/02/15 11:56:36;;;;;;;;;;;;;;;19.30;57.74;101466.69;7391810;19;1217;-42
2024/02/15 11:59:06;;;;;;;;;;;;;;;19.05;58.32;101471.28;7394079;19;1772;-41
2024/02/15 12:20:26;;;;;;;;;;;;;;;19.26;58.05;101466.06;7392541;19;1391;-37
2024/02/15 12:22:55;;;;;;;;;;;;;;;19.62;57.12;101452.56;7388529;19;1848;-37
2024/02/15 12:25:24;;;;;;;;;;;;;;;19.39;57.60;101452.53;7391846;19;1783;-37
2024/02/15 12:27:55;;;;;;;;;;;;;;;19.14;58.34;101468.84;7391403;19;1645;-37
2024/02/15 12:30:25;;;;;;;;;;;;;;;18.98;58.80;101458.47;7392776;19;1721;-37
2024/02/15 12:33:12;;;;;;;;;;;;;;;19.08;58.38;101452.28;7392026;19;1328;-41
2024/02/15 12:35:41;;;;;;;;;;;;;;;19.84;56.88;101462.44;7391827;19;1388;-38
2024/02/15 12:38:12;;;;;;;;;;;;;;;20.15;56.13;101435.75;7392537;19;1619;-37
2024/02/15 12:40:41;;;;;;;;;;;;;;;20.32;55.59;101437.06;7393329;19;992;-37
2024/02/15 12:43:09;;;;;;;;;;;;;;;20.37;55.61;101445.56;7387200;19;1855;-37
2024/02/15 12:45:39;;;;;;;;;;;;;;;20.33;55.53;101444.97;7393426;19;1787;-37
2024/02/15 12:48:11;;;;;;;;;;;;;;;20.30;55.69;101450.63;7391316;19;1200;-37
2024/02/15 12:50:39;;;;;;;;;;;;;;;20.18;56.10;101441.75;7390854;19;1478;-36
2024/02/15 12:53:08;;;;;;;;;;;;;;;20.21;56.14;101441.50;7391898;19;1571;-42
2024/02/15 12:55:37;;;;;;;;;;;;;;;20.22;56.07;101443.19;7393985;19;1019;-38
2024/02/15 12:58:08;;;;;;;;;;;;;;;20.23;55.97;101441.34;7392089;19;1062;-42
2024/02/15 13:00:39;;;;;;;;;;;;;;;20.24;56.17;101441.22;7392508;19;1847;-42
2024/02/15 13:03:11;;;;;;;;;;;;;;;20.19;56.28;101448.84;7374988;19;1935;-37
2024/02/15 13:05:39;;;;;;;;;;;;;;;20.20;56.27;101439.78;7392484;19;1930;-37
2024/02/15 13:08:10;;;;;;;;;;;;;;;20.25;55.94;101437.59;7391175;19;1400;-36
2024/02/15 13:10:38;;;;;;;;;;;;;;;20.23;55.92;101435.97;7389431;19;1292;-37
2024/02/15 13:13:09;;;;;;;;;;;;;;;20.24;56.03;101435.84;7390714;19;1458;-37
2024/02/15 13:15:37;;;;;;;;;;;;;;;20.23;56.02;101439.53;7392345;19;1117;-37
2024/02/15 13:18:09;;;;;;;;;;;;;;;20.22;56.07;101436.97;7389855;19;1439;-37
2024/02/15 13:20:40;;;;;;;;;;;;;;;20.24;56.17;101446.59;7387970;19;1814;-37
2024/02/15 13:23:14;;;;;;;;;;;;;;;20.23;56.34;101444.91;7387301;19;1867;-37
2024/02/15 13:25:45;;;;;;;;;;;;;;;20.26;56.22;101444.63;7387013;19;1157;-38
2024/02/15 13:28:14;;;;;;;;;;;;;;;20.22;56.07;101435.13;7388711;19;1745;-37
2024/02/15 13:30:44;;;;;;;;;;;;;;;20.26;56.04;101451.84;7389932;19;1579;-37
2024/02/15 13:33:13;;;;;;;;;;;;;;;20.23;56.16;101426.13;7390831;19;1756;-36